Time;durP1;ratioP1;P1;durP2;ratioP2;P2;SDS_P1;SDS_P2;PMS_P1;PMS_P2;Temp;Humidity;BMP_temperature;BMP_pressure;BME280_temperature;BME280_humidity;BME280_pressure;Samples;Min_cycle;Max_cycle;Signal;HPM_P1;HPM_P2
2023/03/07 00:00:17;;;;;;;23.27;14.73;;;3.50;99.90;;;;;;5039136;28;20198;-59
2023/03/07 00:02:44;;;;;;;19.70;12.93;;;3.50;99.90;;;;;;5035684;28;20206;-61
2023/03/07 00:05:13;;;;;;;24.50;13.40;;;3.50;99.90;;;;;;5033745;28;20205;-60
2023/03/07 00:07:40;;;;;;;18.90;11.13;;;3.50;99.90;;;;;;5033692;28;20209;-60
2023/03/07 00:10:10;;;;;;;23.27;12.55;;;3.50;99.90;;;;;;5034027;28;20676;-61
2023/03/07 00:12:36;;;;;;;21.50;13.90;;;3.50;99.90;;;;;;5034920;28;20212;-59
2023/03/07 00:15:04;;;;;;;20.48;13.85;;;3.50;99.90;;;;;;5034563;28;20198;-60
2023/03/07 00:17:31;;;;;;;24.13;14.02;;;3.50;99.90;;;;;;5034621;28;20222;-61
2023/03/07 00:19:57;;;;;;;20.17;12.10;;;3.50;99.90;;;;;;5034239;28;20249;-60
2023/03/07 00:22:24;;;;;;;18.92;13.05;;;3.50;99.90;;;;;;5033926;28;20205;-60
2023/03/07 00:24:51;;;;;;;20.40;13.27;;;3.50;99.90;;;;;;5034057;28;20212;-60
2023/03/07 00:27:19;;;;;;;23.92;13.40;;;3.50;99.90;;;;;;5037104;28;20198;-61
2023/03/07 00:29:49;;;;;;;26.30;13.40;;;3.60;99.90;;;;;;5038408;28;20305;-61
2023/03/07 00:32:16;;;;;;;17.30;10.85;;;3.50;99.90;;;;;;5038761;28;20213;-60
2023/03/07 00:34:42;;;;;;;21.95;13.48;;;3.50;99.90;;;;;;5038257;28;20209;-60
2023/03/07 00:37:09;;;;;;;23.20;14.20;;;3.50;99.90;;;;;;5037917;28;20229;-60
2023/03/07 00:39:36;;;;;;;23.23;14.85;;;3.40;99.90;;;;;;5037794;28;20228;-59
2023/03/07 00:42:03;;;;;;;19.52;12.63;;;3.40;99.90;;;;;;5037697;28;20648;-60
2023/03/07 00:44:32;;;;;;;21.50;13.52;;;3.30;99.90;;;;;;5037975;28;20210;-61
2023/03/07 00:46:59;;;;;;;18.20;12.27;;;3.30;99.90;;;;;;5037549;28;20709;-60
2023/03/07 00:49:26;;;;;;;20.25;12.90;;;3.30;99.90;;;;;;5037674;28;20249;-60
2023/03/07 00:51:53;;;;;;;20.80;11.82;;;3.30;99.90;;;;;;5038102;28;20234;-61
2023/03/07 00:54:19;;;;;;;20.13;13.05;;;3.30;99.90;;;;;;5039682;28;20672;-61
2023/03/07 00:56:46;;;;;;;21.23;12.93;;;3.30;99.90;;;;;;5041747;28;20698;-60
2023/03/07 00:59:13;;;;;;;20.15;11.82;;;3.30;99.90;;;;;;5042687;28;20218;-61
2023/03/07 01:01:41;;;;;;;22.25;12.43;;;3.30;99.90;;;;;;5041441;28;20202;-60
2023/03/07 01:04:08;;;;;;;22.55;13.23;;;3.30;99.90;;;;;;5040567;28;20199;-60
2023/03/07 01:06:36;;;;;;;21.70;11.82;;;3.30;99.90;;;;;;5042136;28;20206;-61
2023/03/07 01:09:06;;;;;;;20.65;12.48;;;3.30;99.90;;;;;;5041652;28;20313;-60
2023/03/07 01:11:34;;;;;;;22.38;12.93;;;3.30;99.90;;;;;;5043094;28;20202;-60
2023/03/07 01:14:03;;;;;;;21.45;12.85;;;3.30;99.90;;;;;;5041944;28;20198;-61
2023/03/07 01:16:32;;;;;;;19.13;12.77;;;3.30;99.90;;;;;;5042133;28;20223;-60
2023/03/07 01:19:02;;;;;;;17.35;11.30;;;3.30;99.90;;;;;;5042673;28;20324;-61
2023/03/07 01:21:31;;;;;;;20.17;11.57;;;3.30;99.90;;;;;;5045476;28;20225;-60
2023/03/07 01:23:58;;;;;;;17.20;10.57;;;3.30;99.90;;;;;;5046867;28;20202;-60
2023/03/07 01:26:27;;;;;;;16.88;10.68;;;3.30;99.90;;;;;;5045314;28;20201;-60
2023/03/07 01:28:56;;;;;;;18.88;11.77;;;3.30;99.90;;;;;;5046065;28;20229;-61
2023/03/07 01:31:23;;;;;;;19.25;11.73;;;3.30;99.90;;;;;;5041506;28;20210;-60
2023/03/07 01:33:52;;;;;;;18.08;10.52;;;3.30;99.90;;;;;;5041512;28;20202;-60
2023/03/07 01:36:24;;;;;;;17.20;10.63;;;3.30;99.90;;;;;;5041488;28;20228;-60
2023/03/07 01:38:54;;;;;;;18.05;10.70;;;3.30;99.90;;;;;;5039137;28;20219;-59
2023/03/07 01:41:21;;;;;;;17.75;12.35;;;3.30;99.90;;;;;;5039676;28;20220;-61
2023/03/07 01:43:48;;;;;;;17.38;10.00;;;3.30;99.90;;;;;;5039379;28;20202;-60
2023/03/07 01:46:32;;;;;;;15.82;9.95;;;3.30;99.90;;;;;;5037499;28;20205;-61
2023/03/07 01:49:03;;;;;;;16.45;10.88;;;3.20;99.90;;;;;;5036484;28;20257;-60
2023/03/07 01:51:32;;;;;;;20.80;11.57;;;3.20;99.90;;;;;;5036622;28;20193;-60
2023/03/07 01:54:01;;;;;;;17.95;11.18;;;3.20;99.90;;;;;;5037360;28;20206;-60
2023/03/07 01:56:28;;;;;;;16.55;10.32;;;3.20;99.90;;;;;;5037154;28;20214;-61
2023/03/07 01:58:56;;;;;;;15.05;10.20;;;3.20;99.90;;;;;;5036728;28;20229;-60
2023/03/07 02:01:23;;;;;;;16.60;10.93;;;3.10;99.90;;;;;;5036409;28;20202;-60
2023/03/07 02:03:53;;;;;;;18.33;10.80;;;3.10;99.90;;;;;;5036597;28;20308;-61
2023/03/07 02:06:20;;;;;;;15.45;9.48;;;3.10;99.90;;;;;;5036023;28;20187;-60
2023/03/07 02:08:50;;;;;;;14.70;8.93;;;3.00;99.90;;;;;;5036015;28;20222;-60
2023/03/07 02:11:18;;;;;;;14.25;10.10;;;3.10;99.90;;;;;;5036007;28;20214;-60
2023/03/07 02:13:44;;;;;;;16.20;9.57;;;3.00;99.90;;;;;;5035744;28;20199;-60
2023/03/07 02:16:12;;;;;;;15.52;9.50;;;3.00;99.90;;;;;;5035038;28;20219;-61
2023/03/07 02:18:43;;;;;;;13.50;9.70;;;2.90;99.90;;;;;;5036178;28;20310;-61
2023/03/07 02:21:18;;;;;;;13.23;8.18;;;2.90;99.90;;;;;;5035617;28;20193;-62
2023/03/07 02:23:53;;;;;;;13.82;9.00;;;2.90;99.90;;;;;;5035330;28;20182;-61
2023/03/07 02:26:25;;;;;;;15.32;8.95;;;2.80;99.90;;;;;;5035345;28;20201;-62
2023/03/07 02:28:54;;;;;;;13.75;9.00;;;2.80;99.90;;;;;;5061598;22;20304;-60
2023/03/07 02:31:21;;;;;;;13.15;8.55;;;2.80;99.90;;;;;;5046171;28;20208;-61
2023/03/07 02:33:48;;;;;;;15.15;8.90;;;2.80;99.90;;;;;;5041983;28;20202;-60
2023/03/07 02:36:20;;;;;;;13.85;8.23;;;2.80;99.90;;;;;;5041110;28;20226;-60
2023/03/07 02:38:48;;;;;;;14.93;9.38;;;2.70;99.90;;;;;;5041032;28;20237;-59
2023/03/07 02:41:20;;;;;;;12.80;8.45;;;2.70;99.90;;;;;;5039925;28;20285;-60
2023/03/07 02:43:47;;;;;;;12.02;8.40;;;2.70;99.90;;;;;;5039536;28;20194;-60
2023/03/07 02:46:15;;;;;;;11.40;7.30;;;2.70;99.90;;;;;;5039647;28;20206;-60
2023/03/07 02:48:41;;;;;;;9.70;6.80;;;2.70;99.90;;;;;;5040743;28;20233;-60
2023/03/07 02:51:08;;;;;;;14.88;8.20;;;2.70;99.90;;;;;;5041019;28;20203;-59
2023/03/07 02:53:35;;;;;;;11.82;7.10;;;2.70;99.90;;;;;;5041353;28;20202;-59
2023/03/07 02:56:02;;;;;;;11.27;7.95;;;2.70;99.90;;;;;;5041526;28;20202;-59
2023/03/07 02:58:29;;;;;;;11.45;8.07;;;2.70;99.90;;;;;;5040954;28;20237;-59
2023/03/07 03:00:56;;;;;;;12.30;7.05;;;2.80;99.90;;;;;;5038060;28;20569;-60
2023/03/07 03:03:24;;;;;;;10.50;7.22;;;2.80;99.90;;;;;;5036383;28;20213;-60
2023/03/07 03:05:51;;;;;;;10.35;6.10;;;2.80;99.90;;;;;;5035986;28;20202;-60
2023/03/07 03:08:18;;;;;;;9.43;6.55;;;2.80;99.90;;;;;;5036496;28;20201;-60
2023/03/07 03:10:44;;;;;;;10.90;7.63;;;2.80;99.90;;;;;;5036264;28;20210;-60
2023/03/07 03:13:11;;;;;;;8.82;6.85;;;2.80;99.90;;;;;;5039635;28;20690;-61
2023/03/07 03:15:38;;;;;;;9.43;6.97;;;2.90;99.90;;;;;;5038347;28;20210;-60
2023/03/07 03:18:05;;;;;;;10.00;6.40;;;2.90;99.90;;;;;;5037121;28;20225;-61
2023/03/07 03:20:33;;;;;;;10.43;7.32;;;2.90;99.90;;;;;;5035946;28;20210;-60
2023/03/07 03:22:59;;;;;;;7.78;6.32;;;2.90;99.90;;;;;;5035588;28;20293;-61
2023/03/07 03:25:26;;;;;;;8.65;5.88;;;3.00;99.90;;;;;;5035998;28;20210;-60
2023/03/07 03:27:53;;;;;;;9.45;6.70;;;3.00;99.90;;;;;;5035735;28;20212;-61
2023/03/07 03:30:20;;;;;;;9.75;7.50;;;3.00;99.90;;;;;;5035967;28;20618;-59
2023/03/07 03:32:46;;;;;;;11.10;7.22;;;3.00;99.90;;;;;;5036247;28;20675;-60
2023/03/07 03:35:13;;;;;;;10.57;6.93;;;3.10;99.90;;;;;;5036391;28;20255;-59
2023/03/07 03:37:42;;;;;;;12.55;8.23;;;3.10;99.90;;;;;;5035063;28;20598;-60
2023/03/07 03:40:13;;;;;;;12.95;7.65;;;3.10;99.90;;;;;;5035720;28;20249;-60
2023/03/07 03:42:41;;;;;;;10.55;7.28;;;3.20;99.90;;;;;;5036107;28;20187;-60
2023/03/07 03:45:09;;;;;;;11.55;8.10;;;3.20;99.90;;;;;;5035677;28;20202;-60
2023/03/07 03:47:36;;;;;;;11.32;7.85;;;3.20;99.90;;;;;;5036008;28;20206;-60
2023/03/07 03:50:03;;;;;;;10.75;7.60;;;3.30;99.90;;;;;;5035626;28;20229;-59
2023/03/07 03:52:30;;;;;;;14.32;8.52;;;3.30;99.90;;;;;;5034549;28;20667;-59
2023/03/07 03:54:58;;;;;;;10.70;7.40;;;3.30;99.90;;;;;;5034230;28;20209;-60
2023/03/07 03:57:25;;;;;;;13.70;8.98;;;3.40;99.90;;;;;;5034640;28;20222;-60
2023/03/07 03:59:51;;;;;;;11.82;7.30;;;3.30;99.90;;;;;;5034552;28;20230;-60
2023/03/07 04:02:18;;;;;;;12.52;7.75;;;3.40;99.90;;;;;;5034485;28;20285;-60
2023/03/07 04:04:45;;;;;;;13.50;9.07;;;3.40;99.90;;;;;;5035067;28;20213;-60
2023/03/07 04:07:12;;;;;;;12.07;7.93;;;3.40;99.90;;;;;;5034629;28;20209;-60
2023/03/07 04:11:20;;;;;;;11.13;8.10;;;3.40;99.90;;;;;;5093971;27;20607;-60
2023/03/07 04:13:46;;;;;;;10.07;7.10;;;3.40;99.90;;;;;;5091193;28;20207;-60
2023/03/07 04:16:14;;;;;;;10.82;8.27;;;3.40;99.90;;;;;;5090777;28;20568;-60
2023/03/07 04:18:41;;;;;;;10.93;7.93;;;3.50;99.90;;;;;;5090965;28;20717;-60
2023/03/07 04:21:09;;;;;;;10.07;7.68;;;3.50;99.90;;;;;;5091350;28;20211;-61
2023/03/07 04:23:37;;;;;;;10.63;7.18;;;3.50;99.90;;;;;;5090930;28;20200;-62
2023/03/07 04:26:06;;;;;;;10.00;8.05;;;3.50;99.90;;;;;;5090831;28;20205;-60
2023/03/07 04:28:43;;;;;;;10.65;7.88;;;3.50;99.90;;;;;;5090805;28;20266;-60
2023/03/07 04:31:10;;;;;;;11.98;8.43;;;3.50;99.90;;;;;;5090504;28;20277;-60
2023/03/07 04:33:37;;;;;;;12.05;9.68;;;3.50;99.90;;;;;;5090339;28;20208;-61
2023/03/07 04:36:04;;;;;;;13.30;8.75;;;3.50;99.90;;;;;;5090419;28;20207;-60
2023/03/07 04:38:31;;;;;;;9.73;6.97;;;3.50;99.90;;;;;;5090590;28;20227;-61
2023/03/07 04:40:58;;;;;;;12.13;8.77;;;3.50;99.90;;;;;;5090425;28;20665;-61
2023/03/07 04:43:25;;;;;;;11.27;8.48;;;3.50;99.90;;;;;;5090762;28;20204;-60
2023/03/07 04:45:54;;;;;;;13.57;7.78;;;3.50;99.90;;;;;;5090894;28;20223;-62
2023/03/07 04:48:21;;;;;;;11.18;7.90;;;3.50;99.90;;;;;;5091001;28;20231;-61
2023/03/07 04:50:49;;;;;;;12.57;9.27;;;3.50;99.90;;;;;;5093242;28;20701;-60
2023/03/07 04:53:16;;;;;;;11.18;8.07;;;3.50;99.90;;;;;;5090957;28;20200;-60
2023/03/07 04:55:43;;;;;;;14.38;10.50;;;3.50;99.90;;;;;;5090461;28;20253;-60
2023/03/07 04:58:11;;;;;;;11.98;8.60;;;3.50;99.90;;;;;;5090545;28;20275;-60
2023/03/07 05:00:39;;;;;;;11.57;8.90;;;3.50;99.90;;;;;;5089950;28;20566;-62
2023/03/07 05:03:07;;;;;;;11.50;8.50;;;3.60;99.90;;;;;;5090677;28;20272;-59
2023/03/07 05:05:34;;;;;;;11.52;8.50;;;3.60;99.90;;;;;;5090595;28;20200;-60
2023/03/07 05:08:00;;;;;;;11.30;8.10;;;3.60;99.90;;;;;;5090562;28;20204;-60
2023/03/07 05:10:27;;;;;;;11.32;9.07;;;3.60;99.90;;;;;;5089889;28;20232;-61
2023/03/07 05:12:54;;;;;;;12.15;9.35;;;3.60;99.90;;;;;;5090103;28;20201;-61
2023/03/07 05:15:21;;;;;;;12.45;8.70;;;3.60;99.90;;;;;;5090049;28;20208;-61
2023/03/07 05:17:48;;;;;;;12.43;8.02;;;3.50;99.90;;;;;;5090459;28;20273;-60
2023/03/07 05:20:17;;;;;;;9.18;5.82;;;3.50;99.90;;;;;;5089682;28;20216;-62
2023/03/07 05:22:44;;;;;;;7.32;4.30;;;3.30;99.90;;;;;;5076224;28;20284;-60
2023/03/07 05:25:11;;;;;;;4.80;4.07;;;3.20;99.90;;;;;;5076970;28;20212;-60
2023/03/07 05:27:38;;;;;;;5.32;3.85;;;3.00;99.90;;;;;;5076236;28;20210;-61
2023/03/07 05:30:06;;;;;;;3.35;2.72;;;2.80;99.90;;;;;;5076168;28;20217;-60
2023/03/07 05:32:33;;;;;;;4.80;1.98;;;2.70;99.90;;;;;;5075417;28;20209;-61
2023/03/07 05:34:59;;;;;;;2.58;1.83;;;2.60;99.90;;;;;;5075842;28;20258;-60
2023/03/07 05:37:27;;;;;;;2.55;2.33;;;2.40;99.90;;;;;;5067791;28;20213;-61
2023/03/07 05:39:54;;;;;;;6.32;2.20;;;2.30;99.90;;;;;;5059091;28;20224;-59
2023/03/07 05:42:21;;;;;;;1.60;1.30;;;2.20;99.90;;;;;;5060562;28;20602;-61
2023/03/07 05:44:48;;;;;;;2.35;1.27;;;2.20;99.90;;;;;;5061011;28;20198;-60
2023/03/07 05:47:14;;;;;;;4.97;2.00;;;2.10;99.90;;;;;;5069631;28;20212;-61
2023/03/07 05:49:41;;;;;;;1.50;1.02;;;2.10;99.90;;;;;;5056494;28;20226;-61
2023/03/07 05:52:08;;;;;;;3.25;1.42;;;2.10;99.90;;;;;;5061990;28;20197;-60
2023/03/07 05:54:36;;;;;;;1.80;1.60;;;2.10;99.90;;;;;;5061591;28;20201;-60
2023/03/07 05:57:03;;;;;;;2.75;1.50;;;2.10;99.90;;;;;;5066944;28;20671;-60
2023/03/07 05:59:29;;;;;;;4.20;1.00;;;2.10;99.90;;;;;;5067332;28;20237;-59
2023/03/07 06:01:56;;;;;;;5.28;1.35;;;2.10;99.90;;;;;;5067081;28;20578;-60
2023/03/07 06:04:23;;;;;;;3.38;1.65;;;2.20;99.90;;;;;;5061083;28;20208;-61
2023/03/07 06:06:49;;;;;;;1.55;1.25;;;2.20;99.90;;;;;;5062584;28;20197;-63
2023/03/07 06:09:16;;;;;;;1.55;1.00;;;2.20;99.90;;;;;;5066820;28;20229;-62
2023/03/07 06:11:44;;;;;;;5.57;1.65;;;2.30;99.90;;;;;;5068520;28;20205;-60
2023/03/07 06:14:11;;;;;;;2.85;1.35;;;2.30;99.90;;;;;;5063980;28;20220;-60
2023/03/07 06:16:38;;;;;;;2.15;1.40;;;2.40;99.90;;;;;;5055759;28;20244;-60
2023/03/07 06:19:05;;;;;;;2.13;1.40;;;2.50;99.90;;;;;;5063330;28;20275;-58
2023/03/07 06:21:31;;;;;;;4.93;2.17;;;2.50;99.90;;;;;;5061912;28;20546;-61
2023/03/07 06:23:58;;;;;;;2.20;1.20;;;2.60;99.90;;;;;;5064713;28;20201;-59
2023/03/07 06:26:25;;;;;;;3.00;1.30;;;2.60;99.90;;;;;;5059835;28;20213;-60
2023/03/07 06:28:53;;;;;;;2.15;1.88;;;2.70;99.90;;;;;;5068104;28;20225;-60
2023/03/07 06:31:20;;;;;;;2.80;1.27;;;2.70;99.90;;;;;;5072089;28;20213;-59
2023/03/07 06:33:47;;;;;;;6.15;1.77;;;2.80;99.90;;;;;;5075273;28;20212;-61
2023/03/07 06:36:16;;;;;;;4.13;1.52;;;2.80;99.90;;;;;;5074449;28;20208;-59
2023/03/07 06:38:44;;;;;;;4.53;1.30;;;2.80;99.90;;;;;;5075248;28;20221;-61
2023/03/07 06:41:11;;;;;;;5.70;2.45;;;2.90;99.90;;;;;;5060887;28;20664;-59
2023/03/07 06:43:38;;;;;;;2.60;2.08;;;2.90;99.90;;;;;;5059544;28;20690;-62
2023/03/07 06:46:06;;;;;;;2.53;1.80;;;2.90;99.90;;;;;;5060423;28;20283;-60
2023/03/07 06:48:33;;;;;;;1.75;1.52;;;3.00;99.90;;;;;;5066926;28;20225;-60
2023/03/07 06:51:05;;;;;;;2.97;2.38;;;3.00;99.90;;;;;;5058588;28;20692;-60
2023/03/07 06:53:32;;;;;;;2.58;1.30;;;3.00;99.90;;;;;;5055691;28;20205;-59
2023/03/07 06:55:59;;;;;;;4.78;2.30;;;3.10;99.90;;;;;;5055401;28;20204;-61
2023/03/07 06:58:26;;;;;;;2.40;1.75;;;3.10;99.90;;;;;;5054641;28;20593;-59
2023/03/07 07:00:52;;;;;;;5.60;2.10;;;3.10;99.90;;;;;;5070124;28;20196;-60
2023/03/07 07:03:21;;;;;;;4.45;2.20;;;3.10;99.90;;;;;;5087629;28;20205;-60
2023/03/07 07:05:47;;;;;;;4.18;1.80;;;3.20;99.90;;;;;;5082478;28;20225;-60
2023/03/07 07:08:14;;;;;;;4.70;1.95;;;3.20;99.90;;;;;;5067634;28;20209;-61
2023/03/07 07:10:41;;;;;;;1.55;1.45;;;3.20;99.90;;;;;;5068054;28;20233;-62
2023/03/07 07:13:08;;;;;;;1.75;1.65;;;3.30;99.90;;;;;;5070019;28;20201;-61
2023/03/07 07:15:35;;;;;;;1.92;1.50;;;3.30;99.90;;;;;;5068617;28;20204;-61
2023/03/07 07:18:01;;;;;;;4.50;1.83;;;3.30;99.90;;;;;;5068725;28;20229;-61
2023/03/07 07:20:29;;;;;;;6.05;1.75;;;3.40;99.90;;;;;;5057414;28;20198;-60
2023/03/07 07:22:56;;;;;;;10.35;2.58;;;3.40;99.90;;;;;;5056784;28;20205;-59
2023/03/07 07:25:23;;;;;;;2.28;1.45;;;3.40;99.90;;;;;;5057280;28;20202;-60
2023/03/07 07:27:50;;;;;;;2.45;1.90;;;3.40;99.90;;;;;;5057463;28;20201;-59
2023/03/07 07:30:16;;;;;;;4.05;1.98;;;3.50;99.90;;;;;;5059419;28;20249;-61
2023/03/07 07:32:43;;;;;;;2.80;1.45;;;3.50;99.90;;;;;;5060705;28;20205;-60
2023/03/07 07:35:10;;;;;;;3.95;2.00;;;3.50;99.90;;;;;;5056567;28;20204;-60
2023/03/07 07:37:39;;;;;;;3.72;1.67;;;3.50;99.90;;;;;;5059657;28;20206;-60
2023/03/07 07:40:09;;;;;;;2.72;1.77;;;3.40;99.90;;;;;;5058930;28;20699;-59
2023/03/07 07:42:35;;;;;;;3.08;1.58;;;3.40;99.90;;;;;;5060200;28;20616;-59
2023/03/07 07:45:02;;;;;;;2.08;1.70;;;3.40;99.90;;;;;;5059841;28;20587;-60
2023/03/07 07:47:29;;;;;;;5.22;1.85;;;3.50;99.90;;;;;;5060805;28;20581;-60
2023/03/07 07:49:55;;;;;;;2.05;1.38;;;3.50;99.90;;;;;;5061435;28;20300;-60
2023/03/07 07:52:22;;;;;;;1.65;1.45;;;3.50;99.90;;;;;;5059689;28;20233;-60
2023/03/07 07:54:51;;;;;;;2.20;2.00;;;3.60;99.90;;;;;;5059500;28;20202;-60
2023/03/07 07:57:18;;;;;;;4.63;1.98;;;3.60;99.90;;;;;;5058190;28;20201;-58
2023/03/07 07:59:44;;;;;;;2.47;1.80;;;3.60;99.90;;;;;;5056860;28;20311;-60
2023/03/07 08:02:13;;;;;;;3.88;1.92;;;3.70;99.90;;;;;;5057431;28;20197;-60
2023/03/07 08:04:39;;;;;;;6.55;2.30;;;3.70;99.90;;;;;;5056160;28;20263;-61
2023/03/07 08:07:06;;;;;;;3.30;1.55;;;3.70;99.90;;;;;;5056846;28;20197;-60
2023/03/07 08:09:34;;;;;;;2.30;1.65;;;3.70;99.90;;;;;;5056132;28;20236;-60
2023/03/07 08:12:02;;;;;;;4.07;2.38;;;3.80;99.90;;;;;;5055894;28;20221;-60
2023/03/07 08:14:28;;;;;;;3.70;2.00;;;3.70;99.90;;;;;;5055978;28;20208;-60
2023/03/07 08:16:55;;;;;;;3.97;1.77;;;3.80;99.90;;;;;;5058118;28;20205;-60
2023/03/07 08:19:22;;;;;;;2.33;1.80;;;3.80;99.90;;;;;;5062581;28;20226;-59
2023/03/07 08:21:49;;;;;;;5.45;1.70;;;3.80;99.90;;;;;;5062945;28;20269;-60
2023/03/07 08:24:15;;;;;;;3.40;2.03;;;3.80;99.90;;;;;;5061522;28;20205;-59
2023/03/07 08:26:42;;;;;;;2.60;1.75;;;3.80;99.90;;;;;;5059258;28;20205;-60
2023/03/07 08:29:11;;;;;;;6.13;1.60;;;3.80;99.90;;;;;;5059927;28;20217;-60
2023/03/07 08:31:37;;;;;;;3.17;1.77;;;3.70;99.90;;;;;;5060117;28;20225;-60
2023/03/07 08:34:04;;;;;;;2.53;1.90;;;3.70;99.90;;;;;;5063237;28;20212;-59
2023/03/07 08:36:31;;;;;;;2.17;1.50;;;3.60;99.90;;;;;;5062401;28;20631;-59
2023/03/07 08:38:57;;;;;;;1.92;1.52;;;3.60;99.90;;;;;;5063969;28;20225;-59
2023/03/07 08:41:24;;;;;;;2.10;1.48;;;3.50;99.90;;;;;;5064272;28;20217;-60
2023/03/07 08:43:51;;;;;;;2.67;1.70;;;3.50;99.90;;;;;;5063429;28;20208;-61
2023/03/07 08:46:19;;;;;;;5.60;2.05;;;3.50;99.90;;;;;;5078221;22;20229;-59
2023/03/07 08:48:46;;;;;;;3.20;1.65;;;3.50;99.90;;;;;;5053601;28;20206;-58
2023/03/07 08:51:14;;;;;;;5.65;1.83;;;3.40;99.90;;;;;;5053988;28;20218;-59
2023/03/07 08:53:43;;;;;;;1.88;1.02;;;3.40;99.90;;;;;;5054727;28;20210;-59
2023/03/07 08:56:11;;;;;;;1.65;1.25;;;3.40;99.90;;;;;;5054323;28;20639;-60
2023/03/07 08:58:38;;;;;;;2.35;1.25;;;3.40;99.90;;;;;;5057341;28;20208;-60
2023/03/07 09:01:07;;;;;;;2.45;1.17;;;3.30;99.90;;;;;;5057363;28;20194;-60
2023/03/07 09:03:36;;;;;;;2.38;1.02;;;3.30;99.90;;;;;;5057297;28;20265;-61
2023/03/07 09:06:04;;;;;;;2.35;1.13;;;3.20;99.90;;;;;;5057153;28;20225;-61
2023/03/07 09:08:31;;;;;;;3.10;1.30;;;3.00;99.90;;;;;;5057497;28;20308;-61
2023/03/07 09:10:59;;;;;;;2.03;1.13;;;2.90;99.90;;;;;;5057672;28;20559;-59
2023/03/07 09:13:26;;;;;;;3.05;1.40;;;2.80;99.90;;;;;;5057130;28;20229;-59
2023/03/07 09:15:54;;;;;;;3.15;1.35;;;2.70;99.90;;;;;;5058114;28;20232;-59
2023/03/07 09:18:22;;;;;;;4.82;1.10;;;2.60;99.90;;;;;;5057552;28;20232;-60
2023/03/07 09:20:50;;;;;;;2.25;1.13;;;2.60;99.90;;;;;;5056506;28;20226;-59
2023/03/07 09:23:17;;;;;;;6.28;1.50;;;2.50;99.90;;;;;;5056212;28;20197;-62
2023/03/07 09:25:44;;;;;;;2.00;1.90;;;2.50;99.90;;;;;;5056241;28;20312;-61
2023/03/07 09:28:11;;;;;;;3.88;1.10;;;2.40;99.90;;;;;;5056391;28;20679;-61
2023/03/07 09:30:38;;;;;;;1.88;1.30;;;2.40;99.90;;;;;;5056189;28;20198;-61
2023/03/07 09:33:04;;;;;;;4.55;1.30;;;2.30;99.90;;;;;;5055875;28;20688;-63
2023/03/07 09:35:31;;;;;;;6.13;1.10;;;2.40;99.90;;;;;;5063903;28;20232;-59
2023/03/07 09:38:00;;;;;;;1.95;1.40;;;2.40;99.90;;;;;;5059078;28;20204;-60
2023/03/07 09:40:28;;;;;;;1.77;1.00;;;2.30;99.90;;;;;;5056134;28;20293;-60
2023/03/07 09:43:02;;;;;;;3.67;1.40;;;2.30;99.90;;;;;;5059332;28;20201;-61
2023/03/07 09:45:47;;;;;;;3.28;1.30;;;2.30;99.90;;;;;;5055838;28;20722;-60
2023/03/07 09:48:38;;;;;;;1.33;1.23;;;2.30;99.90;;;;;;5060098;28;20202;-61
2023/03/07 09:51:15;;;;;;;1.38;1.27;;;2.20;99.90;;;;;;5058200;28;20740;-60
2023/03/07 09:53:45;;;;;;;4.00;1.10;;;2.10;99.90;;;;;;5058965;28;20185;-62
2023/03/07 09:56:16;;;;;;;4.15;1.20;;;2.10;99.90;;;;;;5059683;28;20236;-60
2023/03/07 09:58:47;;;;;;;1.48;1.00;;;2.10;99.90;;;;;;5059893;28;20201;-60
2023/03/07 10:01:18;;;;;;;3.05;1.10;;;2.10;99.90;;;;;;5060362;28;20285;-60
2023/03/07 10:03:53;;;;;;;2.92;1.02;;;2.00;99.90;;;;;;5059752;28;20197;-61
2023/03/07 10:06:25;;;;;;;3.00;1.38;;;2.00;99.90;;;;;;5061371;28;20233;-60
2023/03/07 10:08:57;;;;;;;1.17;1.02;;;2.00;99.90;;;;;;5060496;28;20651;-61
2023/03/07 10:11:38;;;;;;;3.85;1.33;;;2.00;99.90;;;;;;5060121;28;20210;-59
2023/03/07 10:14:17;;;;;;;2.65;1.48;;;2.00;99.90;;;;;;5061791;28;20188;-59
2023/03/07 10:16:50;;;;;;;7.07;1.85;;;2.10;99.90;;;;;;5056750;28;20229;-60
2023/03/07 10:19:28;;;;;;;5.38;1.25;;;2.10;99.90;;;;;;5055598;28;20194;-60
2023/03/07 10:22:03;;;;;;;2.08;1.25;;;2.10;99.90;;;;;;5056339;28;20189;-61
2023/03/07 10:24:46;;;;;;;3.55;1.42;;;2.10;99.90;;;;;;5055588;28;20190;-60
2023/03/07 10:27:14;;;;;;;2.90;1.70;;;2.10;99.90;;;;;;5055630;28;20193;-61
2023/03/07 10:29:47;;;;;;;1.05;1.00;;;2.10;99.90;;;;;;5055857;28;20671;-60
2023/03/07 10:32:22;;;;;;;4.05;1.48;;;2.20;99.90;;;;;;5058845;28;20297;-60
2023/03/07 10:34:55;;;;;;;6.22;1.65;;;2.20;99.90;;;;;;5060150;28;20189;-61
2023/03/07 10:37:33;;;;;;;2.45;1.40;;;2.20;99.90;;;;;;5063372;28;20193;-60
2023/03/07 10:40:02;;;;;;;2.17;1.10;;;2.20;99.90;;;;;;5058835;28;20194;-60
2023/03/07 10:42:35;;;;;;;2.47;1.45;;;2.10;99.90;;;;;;5056626;28;20197;-60
2023/03/07 10:45:03;;;;;;;2.88;1.65;;;2.10;99.90;;;;;;5055757;28;20257;-65
2023/03/07 10:47:30;;;;;;;1.10;1.00;;;2.20;99.90;;;;;;5055116;28;20201;-65
2023/03/07 10:50:05;;;;;;;4.53;1.40;;;2.20;99.90;;;;;;5056317;28;20197;-64
2023/03/07 10:52:38;;;;;;;4.15;1.48;;;2.20;99.90;;;;;;5057348;28;20202;-64
2023/03/07 10:55:41;;;;;;;3.22;1.65;;;2.20;99.90;;;;;;5056414;28;20225;-65
2023/03/07 10:58:23;;;;;;;3.75;1.70;;;2.20;99.90;;;;;;5059070;28;20295;-64
2023/03/07 11:01:02;;;;;;;3.08;1.08;;;2.20;99.90;;;;;;5058270;28;20189;-64
2023/03/07 11:03:33;;;;;;;3.65;1.55;;;2.30;99.90;;;;;;5057292;28;20208;-65
2023/03/07 11:06:00;;;;;;;1.65;1.42;;;2.30;99.90;;;;;;5061325;28;20226;-66
2023/03/07 11:08:31;;;;;;;1.67;1.30;;;2.30;99.90;;;;;;5055541;28;20213;-64
2023/03/07 11:11:00;;;;;;;1.50;1.40;;;2.30;99.90;;;;;;5061303;28;20260;-64
2023/03/07 11:13:27;;;;;;;2.92;1.70;;;2.30;99.90;;;;;;5056308;28;20284;-63
2023/03/07 11:16:10;;;;;;;2.20;1.77;;;2.30;99.90;;;;;;5056396;28;20225;-64
2023/03/07 11:18:40;;;;;;;2.92;1.38;;;2.40;99.90;;;;;;5055243;28;20510;-64
2023/03/07 11:21:26;;;;;;;4.50;2.60;;;2.40;99.90;;;;;;5054378;28;20208;-63
2023/03/07 11:23:59;;;;;;;2.10;1.83;;;2.50;99.90;;;;;;5054676;28;20186;-63
2023/03/07 11:26:32;;;;;;;1.85;1.60;;;2.50;99.90;;;;;;5054964;28;20225;-63
2023/03/07 11:29:07;;;;;;;4.32;2.05;;;2.50;99.90;;;;;;5054596;28;20585;-63
2023/03/07 11:31:50;;;;;;;1.45;1.25;;;2.60;99.90;;;;;;5054848;28;20596;-62
2023/03/07 11:34:30;;;;;;;3.13;1.85;;;2.60;99.90;;;;;;5054299;28;20623;-64
2023/03/07 11:37:07;;;;;;;4.53;1.73;;;2.70;99.90;;;;;;5054027;28;20566;-63
2023/03/07 11:39:39;;;;;;;1.67;1.52;;;2.70;99.90;;;;;;5053783;28;20193;-63
2023/03/07 11:42:15;;;;;;;2.35;1.10;;;2.60;99.90;;;;;;5055686;28;20273;-66
2023/03/07 11:44:51;;;;;;;2.55;1.58;;;2.50;99.90;;;;;;5055592;28;20611;-63
2023/03/07 11:47:29;;;;;;;3.97;2.60;;;2.50;99.90;;;;;;5059061;28;20185;-61
2023/03/07 11:50:11;;;;;;;2.50;2.15;;;2.50;99.90;;;;;;5057124;28;20193;-63
2023/03/07 11:53:15;;;;;;;2.05;1.40;;;2.60;99.90;;;;;;5058540;28;20232;-65
2023/03/07 11:55:48;;;;;;;5.20;1.45;;;2.60;99.90;;;;;;5048650;28;20706;-66
2023/03/07 11:58:35;;;;;;;2.45;1.80;;;2.70;99.90;;;;;;5060636;28;20189;-63
2023/03/07 12:01:10;;;;;;;2.00;1.70;;;2.80;99.90;;;;;;5056957;28;20256;-64
2023/03/07 12:04:03;;;;;;;1.98;1.60;;;2.90;99.90;;;;;;5060433;28;20192;-64
2023/03/07 12:06:40;;;;;;;2.40;2.20;;;2.90;99.90;;;;;;5059699;28;20221;-62
2023/03/07 12:09:19;;;;;;;3.33;2.20;;;3.10;99.90;;;;;;5059052;28;20192;-63
2023/03/07 12:12:08;;;;;;;2.42;1.75;;;3.10;99.90;;;;;;5056487;28;20206;-63
2023/03/07 12:14:45;;;;;;;2.20;1.90;;;3.30;99.90;;;;;;5055539;28;20194;-62
2023/03/07 12:17:24;;;;;;;3.45;1.60;;;3.50;99.90;;;;;;5055117;28;20182;-60
2023/03/07 12:20:18;;;;;;;2.60;2.20;;;3.60;99.90;;;;;;5056878;28;20190;-60
2023/03/07 12:23:09;;;;;;;3.15;2.60;;;3.70;99.90;;;;;;5060546;28;20190;-62
2023/03/07 12:25:38;;;;;;;4.55;2.20;;;3.80;99.90;;;;;;5061466;28;20222;-60
2023/03/07 12:28:12;;;;;;;3.60;2.17;;;3.90;99.90;;;;;;5065025;28;20268;-60
2023/03/07 12:30:58;;;;;;;3.22;2.15;;;4.00;99.90;;;;;;5057707;28;20186;-61
2023/03/07 12:33:43;;;;;;;3.05;2.20;;;4.10;99.90;;;;;;5062757;28;20205;-61
2023/03/07 12:36:16;;;;;;;1.80;1.70;;;4.20;99.90;;;;;;5059983;28;20222;-61
2023/03/07 12:38:56;;;;;;;1.83;1.73;;;4.20;99.90;;;;;;5063793;28;20196;-59
2023/03/07 12:41:35;;;;;;;2.80;2.10;;;4.30;99.90;;;;;;5062224;28;20201;-62
2023/03/07 12:44:06;;;;;;;2.28;2.08;;;4.30;99.90;;;;;;5067612;28;20232;-60
2023/03/07 12:46:40;;;;;;;4.25;2.40;;;4.30;99.90;;;;;;5063478;28;20324;-61
2023/03/07 12:49:15;;;;;;;5.05;2.50;;;4.30;99.90;;;;;;5062421;28;20213;-61
2023/03/07 12:51:48;;;;;;;4.30;2.50;;;4.20;99.90;;;;;;5063201;28;20620;-61
2023/03/07 12:54:21;;;;;;;2.42;1.95;;;4.10;99.90;;;;;;5060178;28;20197;-60
2023/03/07 12:56:54;;;;;;;4.60;2.30;;;4.20;99.90;;;;;;5062885;28;20703;-61
2023/03/07 12:59:21;;;;;;;2.97;2.38;;;4.10;99.90;;;;;;5065191;28;20205;-63
2023/03/07 13:01:57;;;;;;;2.40;2.20;;;4.10;99.90;;;;;;5063367;28;20202;-60
2023/03/07 13:04:30;;;;;;;1.92;1.63;;;4.10;99.90;;;;;;5059418;28;20276;-60